Time;durP1;ratioP1;P1;durP2;ratioP2;P2;SDS_P1;SDS_P2;PMS_P1;PMS_P2;Temp;Humidity;BMP_temperature;BMP_pressure;BME280_temperature;BME280_humidity;BME280_pressure;Samples;Min_cycle;Max_cycle;Signal;HPM_P1;HPM_P2
2023/03/11 00:00:51;;;;;;;12.07;1.38;;;;;;;;;;4985034;28;20137;-79
2023/03/11 00:03:18;;;;;;;5.45;1.17;;;;;;;;;;4972329;28;20149;-72
2023/03/11 00:05:45;;;;;;;9.13;1.52;;;;;;;;;;4969933;28;20491;-81
2023/03/11 00:08:13;;;;;;;10.98;1.33;;;;;;;;;;4974824;28;20033;-79
2023/03/11 00:10:40;;;;;;;7.50;1.10;;;;;;;;;;4984818;28;20427;-82
2023/03/11 00:13:07;;;;;;;12.48;1.98;;;;;;;;;;4966697;28;20038;-82
2023/03/11 00:15:34;;;;;;;10.02;1.80;;;;;;;;;;4983440;28;20045;-80
2023/03/11 00:18:00;;;;;;;20.38;7.05;;;;;;;;;;4982908;28;20018;-76
2023/03/11 00:20:28;;;;;;;28.27;10.05;;;;;;;;;;4988961;28;20088;-77
2023/03/11 00:22:54;;;;;;;4.53;1.30;;;;;;;;;;4981471;28;20476;-78
2023/03/11 00:25:21;;;;;;;4.75;0.80;;;;;;;;;;4983163;28;20038;-77
2023/03/11 00:27:47;;;;;;;9.38;1.50;;;;;;;;;;4967003;28;20022;-76
2023/03/11 00:30:13;;;;;;;7.03;1.05;;;;;;;;;;4986212;28;20041;-77
2023/03/11 00:32:40;;;;;;;6.55;1.13;;;;;;;;;;4985925;28;20097;-80
2023/03/11 00:35:06;;;;;;;3.78;0.90;;;;;;;;;;4986347;28;20041;-80
2023/03/11 00:37:32;;;;;;;5.38;0.98;;;;;;;;;;4986002;28;20043;-78
2023/03/11 00:39:59;;;;;;;4.97;0.88;;;;;;;;;;4967877;28;20045;-81
2023/03/11 00:42:25;;;;;;;4.55;0.73;;;;;;;;;;4987050;28;20089;-81
2023/03/11 00:44:51;;;;;;;4.70;1.23;;;;;;;;;;4968418;28;20022;-80
2023/03/11 00:47:17;;;;;;;4.10;0.95;;;;;;;;;;4980736;28;20396;-79
2023/03/11 00:49:43;;;;;;;4.45;0.82;;;;;;;;;;4976454;28;20085;-80
2023/03/11 00:52:09;;;;;;;7.13;1.23;;;;;;;;;;4985269;28;20487;-78
2023/03/11 00:54:35;;;;;;;6.57;1.10;;;;;;;;;;4985619;28;20045;-80
2023/03/11 00:57:01;;;;;;;10.98;1.40;;;;;;;;;;4986729;28;20022;-81
2023/03/11 00:59:27;;;;;;;8.43;1.05;;;;;;;;;;4984427;28;20510;-81
2023/03/11 01:01:53;;;;;;;8.70;1.10;;;;;;;;;;4984994;28;20034;-80
2023/03/11 01:04:19;;;;;;;5.70;1.00;;;;;;;;;;4967213;28;20113;-82
2023/03/11 01:06:45;;;;;;;8.43;0.88;;;;;;;;;;4984125;28;23790;-81
2023/03/11 01:09:11;;;;;;;2.15;0.57;;;;;;;;;;4986780;28;20034;-77
2023/03/11 01:11:36;;;;;;;5.30;0.90;;;;;;;;;;4986475;28;20065;-81
2023/03/11 01:14:03;;;;;;;2.65;0.80;;;;;;;;;;4981976;28;20399;-80
2023/03/11 01:16:29;;;;;;;7.43;0.85;;;;;;;;;;4984787;28;20041;-82
2023/03/11 01:18:55;;;;;;;9.75;0.93;;;;;;;;;;4985203;28;20093;-77
2023/03/11 01:21:21;;;;;;;3.20;0.63;;;;;;;;;;4968223;28;20360;-80
2023/03/11 01:23:47;;;;;;;6.32;0.70;;;;;;;;;;4980122;28;20033;-79
2023/03/11 01:26:14;;;;;;;3.90;0.70;;;;;;;;;;4986511;28;20038;-81
2023/03/11 01:28:40;;;;;;;4.15;0.57;;;;;;;;;;4968472;28;20078;-77
2023/03/11 01:31:06;;;;;;;8.43;0.80;;;;;;;;;;4984785;28;20050;-81
2023/03/11 01:33:32;;;;;;;3.85;0.98;;;;;;;;;;4969184;28;20112;-78
2023/03/11 01:35:58;;;;;;;3.40;0.70;;;;;;;;;;4969598;28;20096;-81
2023/03/11 01:38:24;;;;;;;4.57;0.93;;;;;;;;;;4968108;28;20031;-80
2023/03/11 01:40:51;;;;;;;3.92;0.85;;;;;;;;;;4985605;28;20026;-80
2023/03/11 01:43:55;;;;;;;11.77;0.90;;;;;;;;;;4980188;28;20042;-80
2023/03/11 01:46:21;;;;;;;8.25;2.45;;;;;;;;;;4905976;29;20032;-80
2023/03/11 01:48:48;;;;;;;2.08;1.30;;;;;;;;;;4906407;29;20469;-80
2023/03/11 01:51:17;;;;;;;4.57;0.65;;;;;;;;;;4926577;28;20035;-80
2023/03/11 01:53:43;;;;;;;3.65;0.70;;;;;;;;;;4986288;28;20034;-80
2023/03/11 01:56:09;;;;;;;3.03;1.00;;;;;;;;;;4983385;28;20476;-80
2023/03/11 01:58:37;;;;;;;2.53;0.50;;;;;;;;;;4969931;28;20113;-76
2023/03/11 02:01:03;;;;;;;2.53;0.85;;;;;;;;;;4983548;28;20076;-80
2023/03/11 02:03:31;;;;;;;3.72;0.60;;;;;;;;;;4956430;28;20099;-80
2023/03/11 02:05:59;;;;;;;7.32;0.88;;;;;;;;;;4989465;28;20046;-81
2023/03/11 02:08:25;;;;;;;5.75;0.85;;;;;;;;;;4990031;28;21521;-82
2023/03/11 02:10:52;;;;;;;5.15;1.17;;;;;;;;;;4988379;28;20022;-82
2023/03/11 02:13:19;;;;;;;4.57;0.50;;;;;;;;;;4986053;28;20034;-81
2023/03/11 02:15:45;;;;;;;7.32;0.82;;;;;;;;;;4987770;28;20034;-81
2023/03/11 02:18:13;;;;;;;2.53;0.70;;;;;;;;;;4988525;28;20054;-78
2023/03/11 02:20:46;;;;;;;3.90;0.77;;;;;;;;;;4986917;28;20109;-80
2023/03/11 02:23:16;;;;;;;5.97;1.50;;;;;;;;;;4986500;28;20537;-80
2023/03/11 02:25:45;;;;;;;7.15;1.30;;;;;;;;;;4991163;28;20041;-80
2023/03/11 02:28:13;;;;;;;4.15;1.10;;;;;;;;;;4991122;28;20040;-76
2023/03/11 02:30:43;;;;;;;4.60;1.50;;;;;;;;;;4973310;28;20026;-78
2023/03/11 02:33:10;;;;;;;2.35;0.52;;;;;;;;;;4988482;28;20030;-80
2023/03/11 02:35:37;;;;;;;3.08;1.38;;;;;;;;;;4988879;28;20037;-80
2023/03/11 02:38:03;;;;;;;4.32;0.60;;;;;;;;;;4968215;28;20130;-80
2023/03/11 02:40:49;;;;;;;3.72;0.90;;;;;;;;;;4990278;28;20476;-80
2023/03/11 02:43:17;;;;;;;1.13;0.65;;;;;;;;;;4971559;28;20085;-78
2023/03/11 02:45:44;;;;;;;6.05;1.75;;;;;;;;;;4985553;28;20446;-81
2023/03/11 02:48:11;;;;;;;7.88;2.75;;;;;;;;;;4971957;28;20035;-81
2023/03/11 02:50:37;;;;;;;6.28;1.75;;;;;;;;;;4964758;28;20548;-79
2023/03/11 02:53:04;;;;;;;4.47;0.75;;;;;;;;;;4993708;28;20392;-78
2023/03/11 02:55:30;;;;;;;4.88;1.13;;;;;;;;;;4994683;28;20502;-80
2023/03/11 02:57:56;;;;;;;2.97;0.70;;;;;;;;;;4999546;28;20034;-82
2023/03/11 03:00:24;;;;;;;2.25;0.60;;;;;;;;;;4975784;28;20161;-82
2023/03/11 03:02:51;;;;;;;2.58;0.80;;;;;;;;;;4978016;28;20030;-83
2023/03/11 03:05:19;;;;;;;8.30;1.20;;;;;;;;;;4975734;28;20067;-82
2023/03/11 03:07:45;;;;;;;2.75;0.70;;;;;;;;;;4993550;28;20064;-83
2023/03/11 03:10:11;;;;;;;3.47;0.73;;;;;;;;;;4993281;28;20096;-85
2023/03/11 03:12:37;;;;;;;5.05;0.73;;;;;;;;;;4991549;28;20038;-84
2023/03/11 03:15:03;;;;;;;4.72;0.98;;;;;;;;;;4990682;28;20419;-83
2023/03/11 03:17:29;;;;;;;3.85;1.00;;;;;;;;;;4994886;28;20061;-82
2023/03/11 03:19:55;;;;;;;7.50;0.98;;;;;;;;;;5000251;28;20420;-82
2023/03/11 03:22:24;;;;;;;10.27;0.80;;;;;;;;;;4976336;28;20095;-77
2023/03/11 03:24:50;;;;;;;2.53;0.68;;;;;;;;;;4990051;28;20045;-81
2023/03/11 03:27:16;;;;;;;6.75;1.00;;;;;;;;;;4994707;28;20029;-81
2023/03/11 03:29:42;;;;;;;2.30;0.50;;;;;;;;;;4990502;28;20502;-80
2023/03/11 03:32:08;;;;;;;4.32;0.75;;;;;;;;;;4978998;28;20050;-82
2023/03/11 03:34:34;;;;;;;3.22;0.52;;;;;;;;;;4987453;28;20433;-81
2023/03/11 03:37:00;;;;;;;8.50;0.70;;;;;;;;;;4996057;28;20089;-82
2023/03/11 03:39:26;;;;;;;6.93;0.85;;;;;;;;;;4994557;28;20045;-79
2023/03/11 03:41:52;;;;;;;2.33;0.68;;;;;;;;;;4975067;28;20050;-82
2023/03/11 03:44:19;;;;;;;5.40;1.23;;;;;;;;;;4993412;28;20037;-80
2023/03/11 03:46:45;;;;;;;4.47;0.70;;;;;;;;;;4983686;28;20026;-81
2023/03/11 03:49:11;;;;;;;2.03;0.68;;;;;;;;;;4983754;28;20143;-82
2023/03/11 03:51:37;;;;;;;0.73;0.50;;;;;;;;;;4991796;28;20137;-81
2023/03/11 03:54:03;;;;;;;5.50;0.90;;;;;;;;;;4975469;28;20119;-80
2023/03/11 03:56:29;;;;;;;4.10;1.02;;;;;;;;;;4989304;28;20391;-82
2023/03/11 03:58:55;;;;;;;5.07;0.70;;;;;;;;;;4996077;28;20042;-82
2023/03/11 04:01:21;;;;;;;3.72;0.60;;;;;;;;;;4990901;28;20038;-81
2023/03/11 04:03:47;;;;;;;4.40;0.80;;;;;;;;;;4989951;28;20030;-82
2023/03/11 04:06:16;;;;;;;3.47;0.90;;;;;;;;;;4993750;28;20030;-78
2023/03/11 04:08:43;;;;;;;5.82;0.70;;;;;;;;;;4992464;28;20483;-83
2023/03/11 04:11:09;;;;;;;4.03;0.80;;;;;;;;;;4987012;28;20061;-82
2023/03/11 04:13:35;;;;;;;3.22;1.20;;;;;;;;;;4991625;28;20366;-80
2023/03/11 04:16:05;;;;;;;5.75;1.20;;;;;;;;;;4987092;28;20035;-81
2023/03/11 04:18:31;;;;;;;3.90;0.70;;;;;;;;;;4991825;28;20038;-75
2023/03/11 04:20:57;;;;;;;2.70;1.35;;;;;;;;;;4972595;28;20050;-76
2023/03/11 04:23:23;;;;;;;1.58;0.77;;;;;;;;;;4955721;28;20040;-76
2023/03/11 04:25:49;;;;;;;3.03;1.15;;;;;;;;;;4990763;28;20149;-81
2023/03/11 04:28:15;;;;;;;3.47;0.73;;;;;;;;;;4990956;28;20038;-81
2023/03/11 04:30:41;;;;;;;2.80;1.27;;;;;;;;;;4985242;28;20073;-81
2023/03/11 04:33:07;;;;;;;6.97;0.90;;;;;;;;;;4986683;28;20117;-77
2023/03/11 04:35:34;;;;;;;2.83;0.80;;;;;;;;;;4991764;28;20029;-80
2023/03/11 04:38:00;;;;;;;1.38;0.73;;;;;;;;;;4990754;28;20039;-83
2023/03/11 04:40:27;;;;;;;1.55;0.70;;;;;;;;;;4992690;28;20066;-81
2023/03/11 04:42:53;;;;;;;3.00;0.68;;;;;;;;;;4993385;28;20487;-79
2023/03/11 04:45:19;;;;;;;8.38;1.35;;;;;;;;;;4975766;28;20039;-79
2023/03/11 04:47:49;;;;;;;2.20;0.77;;;;;;;;;;4993858;28;20033;-81
2023/03/11 04:50:15;;;;;;;9.18;0.82;;;;;;;;;;4975977;28;20031;-81
2023/03/11 04:52:41;;;;;;;3.33;0.57;;;;;;;;;;4988130;28;20037;-82
2023/03/11 04:55:09;;;;;;;4.32;1.02;;;;;;;;;;4969356;28;20034;-80
2023/03/11 04:57:35;;;;;;;2.03;0.93;;;;;;;;;;4987738;28;20541;-83
2023/03/11 05:00:05;;;;;;;1.73;0.73;;;;;;;;;;4965704;28;20050;-78
2023/03/11 05:02:32;;;;;;;10.30;3.95;;;;;;;;;;4974907;28;20038;-82
2023/03/11 05:04:58;;;;;;;3.60;1.20;;;;;;;;;;4981182;28;20108;-86
2023/03/11 05:07:24;;;;;;;3.92;1.00;;;;;;;;;;4973415;28;20031;-86
2023/03/11 05:09:50;;;;;;;2.75;0.95;;;;;;;;;;4988756;28;20034;-80
2023/03/11 05:12:16;;;;;;;6.63;1.08;;;;;;;;;;4988476;28;20399;-83
2023/03/11 05:14:42;;;;;;;2.15;0.90;;;;;;;;;;4977677;28;20152;-84
2023/03/11 05:17:10;;;;;;;10.45;1.30;;;;;;;;;;4980616;28;20284;-84
2023/03/11 05:19:37;;;;;;;2.95;0.98;;;;;;;;;;4970483;28;20027;-84
2023/03/11 05:22:04;;;;;;;8.23;1.45;;;;;;;;;;4987148;28;20096;-80
2023/03/11 05:24:30;;;;;;;3.83;1.10;;;;;;;;;;4981163;28;20088;-83
2023/03/11 05:26:56;;;;;;;4.93;0.90;;;;;;;;;;4988593;28;20043;-81
2023/03/11 05:29:23;;;;;;;6.05;0.80;;;;;;;;;;4981688;28;20382;-83
2023/03/11 05:31:49;;;;;;;5.07;1.00;;;;;;;;;;4962181;28;20507;-82
2023/03/11 05:34:15;;;;;;;5.20;1.42;;;;;;;;;;4961811;28;20038;-83
2023/03/11 05:36:41;;;;;;;1.90;0.80;;;;;;;;;;4996043;28;20043;-82
2023/03/11 05:39:08;;;;;;;4.60;0.88;;;;;;;;;;4978703;28;20133;-79
2023/03/11 05:41:34;;;;;;;4.30;0.85;;;;;;;;;;4965384;28;20042;-83
2023/03/11 05:44:00;;;;;;;4.78;0.88;;;;;;;;;;4978546;28;20046;-83
2023/03/11 05:46:26;;;;;;;5.10;0.70;;;;;;;;;;4987013;28;20034;-82
2023/03/11 05:48:52;;;;;;;6.50;0.90;;;;;;;;;;4996087;28;20230;-84
2023/03/11 05:51:18;;;;;;;2.88;1.05;;;;;;;;;;4993048;28;20031;-82
2023/03/11 05:53:47;;;;;;;11.63;1.85;;;;;;;;;;4991332;28;20038;-81
2023/03/11 05:56:14;;;;;;;3.10;0.77;;;;;;;;;;4991822;28;20117;-77
2023/03/11 05:58:40;;;;;;;3.17;1.23;;;;;;;;;;4993066;28;20101;-80
2023/03/11 06:01:10;;;;;;;5.15;0.98;;;;;;;;;;4987365;28;20546;-86
2023/03/11 06:03:36;;;;;;;6.03;1.80;;;;;;;;;;4996447;28;20532;-83
2023/03/11 06:06:02;;;;;;;3.90;1.15;;;;;;;;;;4996413;28;20030;-83
2023/03/11 06:08:29;;;;;;;7.47;1.33;;;;;;;;;;4995221;28;20038;-85
2023/03/11 06:11:00;;;;;;;3.55;1.83;;;;;;;;;;4991770;28;20030;-85
2023/03/11 06:13:27;;;;;;;4.75;2.03;;;;;;;;;;4993392;28;20096;-82
2023/03/11 06:15:53;;;;;;;8.00;3.53;;;;;;;;;;4959500;28;20046;-82
2023/03/11 06:18:19;;;;;;;2.13;1.15;;;;;;;;;;4979649;28;20065;-81
2023/03/11 06:20:45;;;;;;;3.30;1.45;;;;;;;;;;4986055;28;20019;-80
2023/03/11 06:23:11;;;;;;;3.67;1.20;;;;;;;;;;4998119;28;20027;-81
2023/03/11 06:25:37;;;;;;;21.45;9.85;;;;;;;;;;4980366;28;20026;-78
2023/03/11 06:28:03;;;;;;;8.52;1.90;;;;;;;;;;4994537;28;20046;-78
2023/03/11 06:30:29;;;;;;;8.18;3.72;;;;;;;;;;4993153;28;20026;-75
2023/03/11 06:32:55;;;;;;;10.13;3.08;;;;;;;;;;4960539;28;20039;-81
2023/03/11 06:35:21;;;;;;;10.73;3.00;;;;;;;;;;4989515;28;20030;-80
2023/03/11 06:37:47;;;;;;;7.22;1.88;;;;;;;;;;4998144;28;20456;-80
2023/03/11 06:40:14;;;;;;;9.50;3.38;;;;;;;;;;4997417;28;20034;-80
2023/03/11 06:42:40;;;;;;;12.40;4.05;;;;;;;;;;4997798;28;20053;-80
2023/03/11 06:45:06;;;;;;;7.45;2.10;;;;;;;;;;4995756;28;20091;-79
2023/03/11 06:47:32;;;;;;;4.57;1.33;;;;;;;;;;4988054;28;20070;-80
2023/03/11 06:49:58;;;;;;;6.05;1.85;;;;;;;;;;4977383;28;20066;-80
2023/03/11 06:52:24;;;;;;;8.27;2.13;;;;;;;;;;4993400;28;20073;-79
2023/03/11 06:54:50;;;;;;;5.28;2.38;;;;;;;;;;4994052;28;20062;-80
2023/03/11 06:57:16;;;;;;;8.23;3.50;;;;;;;;;;4963473;28;20069;-79
2023/03/11 06:59:42;;;;;;;12.35;3.38;;;;;;;;;;4975112;28;20047;-80
2023/03/11 07:02:12;;;;;;;5.47;2.70;;;;;;;;;;4988860;28;20089;-81
2023/03/11 07:04:38;;;;;;;11.43;3.00;;;;;;;;;;4974553;28;20038;-81
2023/03/11 07:07:04;;;;;;;7.38;1.98;;;;;;;;;;4994571;28;20116;-80
2023/03/11 07:09:30;;;;;;;6.47;2.70;;;;;;;;;;4975955;28;20041;-82
2023/03/11 07:11:56;;;;;;;8.07;2.25;;;;;;;;;;4976823;28;20038;-81
2023/03/11 07:14:22;;;;;;;5.13;1.85;;;;;;;;;;4991780;28;20052;-79
2023/03/11 07:16:48;;;;;;;17.67;5.88;;;;;;;;;;4993274;28;20045;-79
2023/03/11 07:19:14;;;;;;;21.88;4.53;;;;;;;;;;4987824;28;20035;-79
2023/03/11 07:21:41;;;;;;;21.05;9.82;;;;;;;;;;4977243;28;20045;-79
2023/03/11 07:24:08;;;;;;;17.80;8.90;;;;;;;;;;4991374;28;20027;-79
2023/03/11 07:26:34;;;;;;;15.05;8.30;;;;;;;;;;4987540;28;20419;-79
2023/03/11 07:29:01;;;;;;;17.20;7.82;;;;;;;;;;4970626;28;20030;-79
2023/03/11 07:31:28;;;;;;;12.05;4.95;;;;;;;;;;4967048;28;20089;-79
2023/03/11 07:33:56;;;;;;;12.18;3.10;;;;;;;;;;4991883;28;20100;-79
2023/03/11 07:36:23;;;;;;;7.80;2.47;;;;;;;;;;4992647;28;20045;-79
2023/03/11 07:38:54;;;;;;;4.10;1.60;;;;;;;;;;4993450;28;20391;-79
2023/03/11 07:41:20;;;;;;;9.13;2.70;;;;;;;;;;4973254;28;20480;-79
2023/03/11 07:43:46;;;;;;;7.80;5.43;;;;;;;;;;4984877;28;20085;-79
2023/03/11 07:46:21;;;;;;;9.68;3.85;;;;;;;;;;4981259;28;20109;-79
2023/03/11 07:48:47;;;;;;;11.13;2.35;;;;;;;;;;4992530;28;20080;-79
2023/03/11 07:51:21;;;;;;;6.15;3.05;;;;;;;;;;4989236;28;20033;-78
2023/03/11 07:53:47;;;;;;;12.68;2.90;;;;;;;;;;4990094;28;20395;-80
2023/03/11 07:56:15;;;;;;;10.35;1.30;;;;;;;;;;4973796;28;20042;-79
2023/03/11 07:58:41;;;;;;;6.13;1.90;;;;;;;;;;4970876;28;20130;-79
2023/03/11 08:01:11;;;;;;;9.38;1.23;;;;;;;;;;4978090;28;20035;-80
2023/03/11 08:03:37;;;;;;;8.35;2.33;;;;;;;;;;4977106;28;20438;-80
2023/03/11 08:06:11;;;;;;;8.75;1.30;;;;;;;;;;4993283;28;20026;-80
2023/03/11 08:08:37;;;;;;;5.78;1.13;;;;;;;;;;4975411;28;20057;-80
2023/03/11 08:11:03;;;;;;;3.25;1.17;;;;;;;;;;4973427;28;20472;-81
2023/03/11 08:13:29;;;;;;;4.90;1.77;;;;;;;;;;4992750;28;20031;-80
2023/03/11 08:15:55;;;;;;;44.83;4.35;;;;;;;;;;4986481;28;20041;-80
2023/03/11 08:18:21;;;;;;;10.85;1.92;;;;;;;;;;4974320;28;20030;-80
2023/03/11 08:20:47;;;;;;;6.32;1.42;;;;;;;;;;4958097;28;20534;-80
2023/03/11 08:23:13;;;;;;;8.00;1.73;;;;;;;;;;4991508;28;20458;-80
2023/03/11 08:25:40;;;;;;;4.38;1.10;;;;;;;;;;4992180;28;20065;-81
2023/03/11 08:28:07;;;;;;;12.15;1.85;;;;;;;;;;4991628;28;20039;-81
2023/03/11 08:30:34;;;;;;;3.75;1.15;;;;;;;;;;4971886;28;20041;-82
2023/03/11 08:33:00;;;;;;;5.85;1.80;;;;;;;;;;4983939;28;20471;-80
2023/03/11 08:35:26;;;;;;;4.07;0.70;;;;;;;;;;4976688;28;20097;-82
2023/03/11 08:37:52;;;;;;;7.45;1.25;;;;;;;;;;4979304;28;20045;-82
2023/03/11 08:40:18;;;;;;;11.38;1.30;;;;;;;;;;4990677;28;20030;-82
2023/03/11 08:42:44;;;;;;;7.35;1.60;;;;;;;;;;4987016;28;20030;-88
2023/03/11 08:45:11;;;;;;;127.45;53.05;;;;;;;;;;4984477;28;20034;-80
2023/03/11 08:47:37;;;;;;;7.40;3.03;;;;;;;;;;4985313;28;20374;-82
2023/03/11 08:50:04;;;;;;;5.80;2.05;;;;;;;;;;4977691;28;20037;-86
2023/03/11 08:52:30;;;;;;;6.70;1.85;;;;;;;;;;4957253;28;20049;-84
2023/03/11 08:54:56;;;;;;;5.45;1.38;;;;;;;;;;4984161;28;20161;-82
2023/03/11 08:57:22;;;;;;;5.15;1.10;;;;;;;;;;4992648;28;20104;-81
2023/03/11 08:59:48;;;;;;;8.88;1.60;;;;;;;;;;4966979;28;20050;-83
2023/03/11 09:02:15;;;;;;;10.45;1.20;;;;;;;;;;4984649;28;20037;-80
2023/03/11 09:04:41;;;;;;;6.35;1.35;;;;;;;;;;4985289;28;20172;-83
2023/03/11 09:07:07;;;;;;;17.25;9.07;;;;;;;;;;4959682;28;20065;-83
2023/03/11 09:09:33;;;;;;;7.30;2.35;;;;;;;;;;4967469;28;20038;-77
2023/03/11 09:11:59;;;;;;;8.60;2.85;;;;;;;;;;4972821;28;20494;-77
2023/03/11 09:14:25;;;;;;;9.20;3.05;;;;;;;;;;4961863;28;20065;-75
2023/03/11 09:16:51;;;;;;;9.50;2.10;;;;;;;;;;4977477;28;20034;-74
2023/03/11 09:19:17;;;;;;;4.68;1.60;;;;;;;;;;4983504;28;20038;-75
2023/03/11 09:21:43;;;;;;;9.25;2.70;;;;;;;;;;4958035;28;20138;-75
2023/03/11 09:24:09;;;;;;;4.20;2.08;;;;;;;;;;4983465;28;20117;-74
2023/03/11 09:26:35;;;;;;;9.23;1.80;;;;;;;;;;4981366;28;20106;-75
2023/03/11 09:29:01;;;;;;;6.60;1.73;;;;;;;;;;4964812;28;20041;-77
2023/03/11 09:31:27;;;;;;;3.67;1.42;;;;;;;;;;4977977;28;20050;-74
2023/03/11 09:33:55;;;;;;;5.15;1.20;;;;;;;;;;4979298;28;20054;-75
2023/03/11 09:36:21;;;;;;;3.95;1.02;;;;;;;;;;4962901;28;20121;-74
2023/03/11 09:38:47;;;;;;;5.70;1.20;;;;;;;;;;4967321;28;20038;-75
2023/03/11 09:41:16;;;;;;;3.58;1.17;;;;;;;;;;4965459;28;20034;-76
2023/03/11 09:43:50;;;;;;;10.00;2.13;;;;;;;;;;4965907;28;20046;-80
2023/03/11 09:46:16;;;;;;;12.20;4.40;;;;;;;;;;4982367;28;20740;-73
2023/03/11 09:48:52;;;;;;;16.38;2.55;;;;;;;;;;4983976;28;20058;-79
2023/03/11 09:51:29;;;;;;;3.45;1.13;;;;;;;;;;4989432;28;20038;-80
2023/03/11 09:53:58;;;;;;;6.25;1.30;;;;;;;;;;4988910;28;20073;-85
2023/03/11 09:56:24;;;;;;;3.17;1.42;;;;;;;;;;4989088;28;20077;-83
2023/03/11 09:59:00;;;;;;;6.97;1.02;;;;;;;;;;4965416;28;20064;-85
2023/03/11 10:01:29;;;;;;;5.88;1.17;;;;;;;;;;4958799;28;20031;-85
2023/03/11 10:03:57;;;;;;;3.72;1.02;;;;;;;;;;4964978;28;20035;-81
2023/03/11 10:06:24;;;;;;;7.30;1.50;;;;;;;;;;4967206;28;20589;-84
2023/03/11 10:08:56;;;;;;;6.60;2.05;;;;;;;;;;4966458;28;20037;-80
2023/03/11 10:11:44;;;;;;;5.90;1.50;;;;;;;;;;4962338;28;20504;-80
2023/03/11 10:14:18;;;;;;;6.32;2.35;;;;;;;;;;4966365;28;20035;-83
2023/03/11 10:16:56;;;;;;;3.83;1.52;;;;;;;;;;4959576;28;20041;-81
2023/03/11 10:19:29;;;;;;;9.18;3.60;;;;;;;;;;4963622;28;20078;-77
2023/03/11 10:22:02;;;;;;;8.10;1.88;;;;;;;;;;4961997;28;20046;-80
2023/03/11 10:24:27;;;;;;;;;;;;;;;;;;4968356;28;20087;-78
2023/03/11 10:26:59;;;;;;;4.40;1.45;;;;;;;;;;4966379;28;19918;-81
2023/03/11 10:29:35;;;;;;;5.18;1.40;;;;;;;;;;4966051;28;20023;-80
2023/03/11 10:32:01;;;;;;;5.47;1.67;;;;;;;;;;4966407;28;20105;-76
2023/03/11 10:34:43;;;;;;;6.35;1.92;;;;;;;;;;4966407;28;20471;-76
2023/03/11 10:37:32;;;;;;;5.70;1.77;;;;;;;;;;4964130;28;20034;-75
2023/03/11 10:40:04;;;;;;;3.60;1.48;;;;;;;;;;4961649;28;20387;-76
2023/03/11 10:42:32;;;;;;;32.10;16.35;;;;;;;;;;4965611;28;20039;-74
2023/03/11 10:44:58;;;;;;;9.07;5.53;;;;;;;;;;4966164;28;20419;-74
2023/03/11 10:47:24;;;;;;;5.03;1.20;;;;;;;;;;4963503;28;20034;-74
2023/03/11 10:49:54;;;;;;;5.38;1.52;;;;;;;;;;4963688;28;20023;-73
2023/03/11 10:52:20;;;;;;;5.47;1.20;;;;;;;;;;4965048;28;20061;-73
2023/03/11 10:54:47;;;;;;;3.70;1.05;;;;;;;;;;4962635;28;20045;-73
2023/03/11 10:57:19;;;;;;;9.25;1.30;;;;;;;;;;4965053;28;20121;-75
2023/03/11 10:59:45;;;;;;;;;;;;;;;;;;4977339;28;20055;-74
2023/03/11 11:02:31;;;;;;;3.97;1.65;;;;;;;;;;4983914;28;19924;-75
2023/03/11 11:05:04;;;;;;;4.13;1.13;;;;;;;;;;4987154;28;20022;-74
2023/03/11 11:07:41;;;;;;;4.63;1.48;;;;;;;;;;4968524;28;20467;-74
2023/03/11 11:10:16;;;;;;;6.32;1.05;;;;;;;;;;4985177;28;20041;-74
2023/03/11 11:12:51;;;;;;;4.93;1.23;;;;;;;;;;4978669;28;20038;-74
2023/03/11 11:15:21;;;;;;;10.23;3.42;;;;;;;;;;4977847;28;20037;-74
2023/03/11 11:17:47;;;;;;;7.22;1.48;;;;;;;;;;4983587;28;20045;-73
2023/03/11 11:20:17;;;;;;;2.83;1.02;;;;;;;;;;4983647;28;20328;-75
2023/03/11 11:22:51;;;;;;;8.80;1.30;;;;;;;;;;4985973;28;20502;-76
2023/03/11 11:25:25;;;;;;;3.58;1.17;;;;;;;;;;4986508;28;20104;-76
2023/03/11 11:27:55;;;;;;;9.43;1.08;;;;;;;;;;4968829;28;20034;-75
2023/03/11 11:30:22;;;;;;;6.70;1.27;;;;;;;;;;4985857;28;20122;-75
2023/03/11 11:32:50;;;;;;;7.03;0.93;;;;;;;;;;4980460;28;20070;-75
2023/03/11 11:35:18;;;;;;;6.70;0.90;;;;;;;;;;4979646;28;20027;-76
2023/03/11 11:37:49;;;;;;;7.70;1.23;;;;;;;;;;4944309;28;20061;-75
2023/03/11 11:40:15;;;;;;;5.60;1.95;;;;;;;;;;4969377;28;20065;-76
2023/03/11 11:42:56;;;;;;;6.75;1.70;;;;;;;;;;4983674;28;20030;-75
2023/03/11 11:45:29;;;;;;;4.15;1.10;;;;;;;;;;4984052;28;20411;-78
2023/03/11 11:47:57;;;;;;;3.80;1.25;;;;;;;;;;4983888;28;20109;-75
2023/03/11 11:50:29;;;;;;;4.32;1.27;;;;;;;;;;4985825;28;20018;-76
2023/03/11 11:52:57;;;;;;;8.50;2.40;;;;;;;;;;4963836;28;20042;-78
2023/03/11 11:55:25;;;;;;;4.40;0.80;;;;;;;;;;4989739;28;20065;-76
2023/03/11 11:57:52;;;;;;;4.88;1.00;;;;;;;;;;4982011;28;20041;-77
2023/03/11 12:00:19;;;;;;;4.38;0.77;;;;;;;;;;4969531;28;20501;-75
2023/03/11 12:03:06;;;;;;;8.00;2.10;;;;;;;;;;4968039;28;20022;-79
2023/03/11 12:05:36;;;;;;;5.57;0.80;;;;;;;;;;4972770;28;20038;-78
2023/03/11 12:08:05;;;;;;;6.85;0.80;;;;;;;;;;4972212;28;20115;-78
2023/03/11 12:10:34;;;;;;;4.28;0.95;;;;;;;;;;4972827;28;20035;-79
2023/03/11 12:13:04;;;;;;;1.83;0.68;;;;;;;;;;4971531;28;20453;-79
2023/03/11 12:15:38;;;;;;;2.67;0.63;;;;;;;;;;4966686;28;20038;-78
2023/03/11 12:18:08;;;;;;;3.70;0.75;;;;;;;;;;4967248;28;20146;-77
2023/03/11 12:20:40;;;;;;;7.88;1.27;;;;;;;;;;4967679;28;20033;-78
2023/03/11 12:23:12;;;;;;;8.68;1.45;;;;;;;;;;4971234;28;20069;-78
2023/03/11 12:25:50;;;;;;;1.83;0.70;;;;;;;;;;4972567;28;20019;-78
2023/03/11 12:28:29;;;;;;;8.15;1.17;;;;;;;;;;4971297;28;20030;-78
2023/03/11 12:30:57;;;;;;;3.78;1.02;;;;;;;;;;4954589;28;20034;-79
2023/03/11 12:33:23;;;;;;;2.42;0.90;;;;;;;;;;4964565;28;20034;-78
2023/03/11 12:35:53;;;;;;;5.82;1.48;;;;;;;;;;4954230;28;20050;-78
2023/03/11 12:38:22;;;;;;;3.58;1.50;;;;;;;;;;4972052;28;20046;-78
2023/03/11 12:40:50;;;;;;;5.93;0.68;;;;;;;;;;4972731;28;20495;-77
2023/03/11 12:43:23;;;;;;;4.82;0.77;;;;;;;;;;4970743;28;20027;-77
2023/03/11 12:45:52;;;;;;;4.40;0.80;;;;;;;;;;4966358;28;20015;-77
2023/03/11 12:48:24;;;;;;;5.80;1.65;;;;;;;;;;4965845;28;20106;-77
2023/03/11 12:50:50;;;;;;;3.63;1.08;;;;;;;;;;4966156;28;20029;-77
2023/03/11 12:53:17;;;;;;;7.85;1.23;;;;;;;;;;4972138;28;20039;-78
2023/03/11 12:56:01;;;;;;;4.35;0.90;;;;;;;;;;4973128;28;20035;-76
2023/03/11 12:59:00;;;;;;;8.70;1.40;;;;;;;;;;4960100;28;20036;-78
2023/03/11 13:01:29;;;;;;;6.40;1.05;;;;;;;;;;4944745;28;20050;-78
2023/03/11 13:03:57;;;;;;;3.55;1.02;;;;;;;;;;4984652;28;20114;-77
2023/03/11 13:06:42;;;;;;;6.15;1.40;;;;;;;;;;4991052;28;20034;-76
2023/03/11 13:09:13;;;;;;;5.55;1.30;;;;;;;;;;4995536;28;20076;-76
2023/03/11 13:11:46;;;;;;;7.40;0.88;;;;;;;;;;4973745;28;20041;-76
2023/03/11 13:14:15;;;;;;;8.60;1.98;;;;;;;;;;4986681;28;20395;-76
2023/03/11 13:16:42;;;;;;;1.88;0.68;;;;;;;;;;4988848;28;20034;-76
2023/03/11 13:19:26;;;;;;;3.15;0.75;;;;;;;;;;4987977;28;20034;-76
2023/03/11 13:21:58;;;;;;;4.25;0.82;;;;;;;;;;4974889;28;20040;-76
2023/03/11 13:24:30;;;;;;;2.03;0.65;;;;;;;;;;4990196;28;20072;-75
2023/03/11 13:26:59;;;;;;;3.70;0.57;;;;;;;;;;4972531;28;20370;-76
2023/03/11 13:29:35;;;;;;;9.13;2.50;;;;;;;;;;4991560;28;20085;-76
2023/03/11 13:32:06;;;;;;;4.45;1.35;;;;;;;;;;4986370;28;20034;-76
2023/03/11 13:34:34;;;;;;;7.18;2.72;;;;;;;;;;4991235;28;20137;-76
2023/03/11 13:37:18;;;;;;;3.85;1.27;;;;;;;;;;4992144;28;20412;-76
2023/03/11 13:39:45;;;;;;;6.20;1.60;;;;;;;;;;4990614;28;20034;-76
2023/03/11 13:42:21;;;;;;;4.70;1.73;;;;;;;;;;4980807;28;20033;-76
2023/03/11 13:44:48;;;;;;;4.22;0.93;;;;;;;;;;4988920;28;20057;-76
2023/03/11 13:47:16;;;;;;;4.07;1.40;;;;;;;;;;4980058;28;20451;-76
2023/03/11 13:49:45;;;;;;;4.82;0.70;;;;;;;;;;4974140;28;20045;-75
2023/03/11 13:52:37;;;;;;;10.55;0.80;;;;;;;;;;4988294;28;20041;-76
2023/03/11 13:55:05;;;;;;;1.77;0.52;;;;;;;;;;4989042;28;20379;-76
2023/03/11 13:57:33;;;;;;;8.95;1.40;;;;;;;;;;4976991;28;20027;-75
2023/03/11 14:00:04;;;;;;;5.03;0.75;;;;;;;;;;4991762;28;20045;-76
2023/03/11 14:02:31;;;;;;;4.95;0.85;;;;;;;;;;4986529;28;20379;-75
2023/03/11 14:05:01;;;;;;;4.00;0.75;;;;;;;;;;4995248;28;20033;-75
2023/03/11 14:07:27;;;;;;;5.20;0.80;;;;;;;;;;4994654;28;20384;-76
2023/03/11 14:10:12;;;;;;;4.63;1.33;;;;;;;;;;5006391;28;20363;-76
2023/03/11 14:12:38;;;;;;;6.93;0.70;;;;;;;;;;4995338;28;20081;-76
2023/03/11 14:15:06;;;;;;;4.55;0.77;;;;;;;;;;4968308;28;20472;-76
2023/03/11 14:17:32;;;;;;;4.07;1.55;;;;;;;;;;4958647;28;21140;-75
2023/03/11 14:20:06;;;;;;;2.35;0.85;;;;;;;;;;4985603;28;20427;-76
2023/03/11 14:22:32;;;;;;;3.65;0.60;;;;;;;;;;4994062;28;20037;-76
2023/03/11 14:25:01;;;;;;;4.95;0.70;;;;;;;;;;4995454;28;20022;-75
2023/03/11 14:27:27;;;;;;;6.43;0.90;;;;;;;;;;4980690;28;20139;-76
2023/03/11 14:29:53;;;;;;;3.92;0.55;;;;;;;;;;4976960;28;20054;-75
2023/03/11 14:32:33;;;;;;;4.05;0.70;;;;;;;;;;4986489;28;20041;-76
2023/03/11 14:34:59;;;;;;;3.00;0.80;;;;;;;;;;4993729;28;20475;-76
2023/03/11 14:37:33;;;;;;;3.30;0.95;;;;;;;;;;4977626;28;20374;-76
2023/03/11 14:39:59;;;;;;;2.40;0.70;;;;;;;;;;4994176;28;20177;-76
2023/03/11 14:42:32;;;;;;;5.57;0.30;;;;;;;;;;4994670;28;20027;-76
2023/03/11 14:44:58;;;;;;;;;;;;;;;;;;4994265;28;20030;-76
2023/03/11 14:47:31;;;;;;;2.10;0.75;;;;;;;;;;4983342;28;19910;-76
2023/03/11 14:49:57;;;;;;;1.80;0.55;;;;;;;;;;4971359;28;20043;-76